createdAt,value
2022-11-16T07:43:53.055Z,85.77
2022-11-16T07:46:46.078Z,85.50
2022-11-16T07:49:18.851Z,85.33
2022-11-16T07:52:00.178Z,85.52
2022-11-16T07:54:50.778Z,85.84
2022-11-16T07:57:19.794Z,85.86
2022-11-16T07:59:49.218Z,85.50
2022-11-16T08:02:17.429Z,85.83
2022-11-16T08:04:46.777Z,85.52
2022-11-16T08:07:16.540Z,85.68
2022-11-16T08:09:50.967Z,85.30
2022-11-16T08:12:19.532Z,85.59
2022-11-16T08:14:47.955Z,85.57
2022-11-16T08:17:16.942Z,85.58
2022-11-16T08:19:46.766Z,85.61
2022-11-16T08:22:17.420Z,85.26
2022-11-16T08:24:46.198Z,85.28
2022-11-16T08:27:16.687Z,85.55
2022-11-16T08:29:47.714Z,85.17
2022-11-16T08:32:15.599Z,85.30
2022-11-16T08:34:44.743Z,85.42
2022-11-16T08:37:20.053Z,84.99
2022-11-16T08:39:49.276Z,84.93
2022-11-16T08:42:17.533Z,85.00
2022-11-16T08:44:47.584Z,85.00
2022-11-16T08:47:17.643Z,84.83
2022-11-16T08:49:54.126Z,84.76
2022-11-16T08:52:22.817Z,85.30
2022-11-16T08:54:51.945Z,85.20
2022-11-16T08:57:20.960Z,85.41
2022-11-16T08:59:55.324Z,85.37
2022-11-16T09:02:25.181Z,85.36
2022-11-16T09:04:54.214Z,85.52
2022-11-16T09:07:22.805Z,84.80
2022-11-16T09:09:52.673Z,83.53
2022-11-16T09:12:21.156Z,84.19
2022-11-16T09:14:49.600Z,84.68
2022-11-16T09:17:22.770Z,84.91
2022-11-16T09:19:53.782Z,85.04
2022-11-16T09:22:23.474Z,84.92
2022-11-16T09:24:51.285Z,84.66
2022-11-16T09:27:20.040Z,84.56
2022-11-16T09:29:48.816Z,84.67
2022-11-16T09:32:17.965Z,84.61
2022-11-16T09:34:48.342Z,83.51
2022-11-16T09:37:18.385Z,83.57
2022-11-16T09:39:49.958Z,83.51
2022-11-16T09:42:33.891Z,83.76
2022-11-16T09:45:04.669Z,84.33
2022-11-16T09:47:42.409Z,84.65
2022-11-16T09:50:40.085Z,85.07
2022-11-16T09:53:33.751Z,84.63
2022-11-16T09:56:10.359Z,84.33
2022-11-16T09:58:51.142Z,84.18
2022-11-16T10:01:27.248Z,84.36
2022-11-16T10:04:07.934Z,84.10
2022-11-16T10:06:52.934Z,83.40
2022-11-16T10:09:21.026Z,83.64
2022-11-16T10:12:03.802Z,83.95
2022-11-16T10:14:49.636Z,84.14
2022-11-16T10:17:38.899Z,84.10
2022-11-16T10:20:30.284Z,84.09
2022-11-16T10:23:19.556Z,84.26
2022-11-16T10:25:54.043Z,84.58
2022-11-16T10:29:15.337Z,84.26
2022-11-16T10:32:04.626Z,84.58
2022-11-16T10:34:40.805Z,84.38
2022-11-16T10:37:12.460Z,84.11
2022-11-16T10:39:40.846Z,83.98
2022-11-16T10:42:16.183Z,83.47
2022-11-16T10:44:47.387Z,83.83
2022-11-16T10:47:32.372Z,83.66
2022-11-16T10:50:20.728Z,84.29
2022-11-16T10:52:48.729Z,83.63
2022-11-16T10:55:24.130Z,83.63
2022-11-16T10:58:04.068Z,83.77
2022-11-16T11:00:35.639Z,83.43
2022-11-16T11:03:04.766Z,83.78
2022-11-16T11:05:33.852Z,83.57
2022-11-16T11:08:24.229Z,83.85
2022-11-16T11:11:01.426Z,83.45
2022-11-16T11:13:29.979Z,83.61
2022-11-16T11:16:20.846Z,83.87
2022-11-16T11:18:54.059Z,84.03
2022-11-16T11:21:33.057Z,84.14
2022-11-16T11:24:29.748Z,84.13
2022-11-16T11:26:57.239Z,83.28
2022-11-16T11:29:39.856Z,82.96
2022-11-16T11:32:20.802Z,82.90
2022-11-16T11:34:57.703Z,82.77
2022-11-16T11:42:15.395Z,82.90
2022-11-16T11:45:11.965Z,82.98
2022-11-16T11:52:38.933Z,83.37
2022-11-16T11:55:19.615Z,83.08
2022-11-16T11:57:54.350Z,83.04
2022-11-16T12:00:26.041Z,83.01
2022-11-16T12:03:35.143Z,82.98
2022-11-16T12:06:26.716Z,83.04
2022-11-16T12:09:21.574Z,83.12
2022-11-16T12:12:25.144Z,82.95
2022-11-16T12:15:32.961Z,83.00
2022-11-16T12:18:13.512Z,82.57
2022-11-16T12:21:04.624Z,82.76
2022-11-16T12:23:57.533Z,82.73
2022-11-16T12:26:37.404Z,82.63
2022-11-16T12:29:40.641Z,82.73
2022-11-16T12:32:43.923Z,82.69
2022-11-16T12:43:51.265Z,82.54
2022-11-16T12:51:54.509Z,82.61
2022-11-16T12:55:18.984Z,82.37
2022-11-16T13:02:57.258Z,82.37
2022-11-16T13:06:34.615Z,82.31
